Time;durP1;ratioP1;P1;durP2;ratioP2;P2;SDS_P1;SDS_P2;PMS_P1;PMS_P2;Temp;Humidity;BMP_temperature;BMP_pressure;BME280_temperature;BME280_humidity;BME280_pressure;Samples;Min_cycle;Max_cycle;Signal;HPM_P1;HPM_P2
2021/05/12 00:02:03;;;;;;;6.75;3.75;;;;;;;15.97;88.58;99727.19;4934412;29;20050;-84
2021/05/12 00:04:29;;;;;;;4.05;3.63;;;;;;;15.93;89.02;99728.31;4935534;29;20035;-84
2021/05/12 00:06:56;;;;;;;4.20;3.80;;;;;;;15.88;89.28;99735.69;4920335;29;20043;-84
2021/05/12 00:09:23;;;;;;;4.25;3.70;;;;;;;15.90;90.16;99736.50;4912064;29;20051;-84
2021/05/12 00:11:49;;;;;;;6.07;4.15;;;;;;;15.93;90.21;99736.31;4943694;28;20046;-83
2021/05/12 00:14:16;;;;;;;4.95;4.45;;;;;;;15.93;91.27;99727.47;4923137;29;20066;-84
2021/05/12 00:16:43;;;;;;;5.18;4.55;;;;;;;15.80;91.69;99731.75;4922226;29;20055;-84
2021/05/12 00:19:10;;;;;;;5.88;4.35;;;;;;;15.74;91.98;99725.84;4922212;29;20049;-84
2021/05/12 00:21:50;;;;;;;7.35;5.20;;;;;;;15.52;94.03;99733.28;4921710;29;20071;-84
2021/05/12 00:24:17;;;;;;;6.93;5.57;;;;;;;15.56;94.27;99734.84;4943383;29;20043;-83
2021/05/12 00:26:44;;;;;;;5.05;4.43;;;;;;;15.54;94.61;99726.06;4920598;29;20055;-84
2021/05/12 00:29:13;;;;;;;5.43;4.80;;;;;;;15.55;94.40;99727.78;4935408;29;20613;-85
2021/05/12 00:31:43;;;;;;;8.18;5.90;;;;;;;15.61;94.68;99730.13;4920323;29;20044;-84
2021/05/12 00:34:10;;;;;;;7.15;5.28;;;;;;;15.58;94.64;99732.09;4917087;29;20437;-84
2021/05/12 00:36:37;;;;;;;5.97;5.22;;;;;;;15.68;93.82;99734.19;4920813;29;20094;-84
2021/05/12 00:39:05;;;;;;;6.75;5.95;;;;;;;15.57;94.66;99736.56;4922645;28;20047;-84
2021/05/12 00:41:38;;;;;;;9.52;6.57;;;;;;;15.60;94.71;99741.69;4927636;29;20086;-83
2021/05/12 00:44:07;;;;;;;8.70;6.18;;;;;;;15.56;95.15;99748.16;4924462;29;20070;-84
2021/05/12 00:46:42;;;;;;;8.30;7.35;;;;;;;15.62;95.23;99755.81;4923586;29;20054;-83
2021/05/12 00:49:09;;;;;;;10.30;7.70;;;;;;;15.68;94.95;99765.28;4921589;29;20046;-84
2021/05/12 00:51:35;;;;;;;9.23;6.22;;;;;;;15.44;96.34;99768.31;4997169;23;20065;-80
2021/05/12 00:54:02;;;;;;;7.38;6.57;;;;;;;15.44;96.83;99778.09;4972191;28;20046;-81
2021/05/12 00:56:29;;;;;;;11.60;9.10;;;;;;;15.46;97.04;99781.53;4951175;28;20077;-81
2021/05/12 00:58:56;;;;;;;9.30;7.45;;;;;;;15.48;95.96;99790.31;4938374;28;20057;-80
2021/05/12 01:01:23;;;;;;;8.93;6.90;;;;;;;15.44;96.26;99788.75;4960131;28;20455;-80
2021/05/12 01:03:49;;;;;;;11.85;8.60;;;;;;;15.49;95.94;99792.03;4951969;28;20043;-80
2021/05/12 01:06:24;;;;;;;10.07;8.30;;;;;;;15.50;95.78;99793.75;4952196;28;20039;-80
2021/05/12 01:08:51;;;;;;;12.40;8.50;;;;;;;15.47;94.79;99799.25;4935072;28;20089;-83
2021/05/12 01:11:18;;;;;;;12.45;8.77;;;;;;;15.40;95.20;99797.84;4950909;28;20059;-81
2021/05/12 01:13:45;;;;;;;11.02;8.45;;;;;;;15.32;94.46;99808.91;4925545;28;20043;-82
2021/05/12 01:16:12;;;;;;;8.88;7.53;;;;;;;15.26;94.43;99821.66;4945866;28;20461;-81
2021/05/12 01:18:39;;;;;;;8.60;7.70;;;;;;;15.16;94.43;99811.53;4963505;28;20045;-81
2021/05/12 01:21:07;;;;;;;9.30;6.85;;;;;;;15.14;95.96;99808.09;4943338;29;20504;-81
2021/05/12 01:23:40;;;;;;;8.95;7.18;;;;;;;15.13;95.07;99816.13;4939647;28;20053;-80
2021/05/12 01:26:10;;;;;;;9.85;8.10;;;;;;;15.21;94.93;99814.78;4929846;28;20047;-82
2021/05/12 01:28:39;;;;;;;8.15;7.35;;;;;;;15.13;94.92;99819.66;4943771;28;20082;-79
2021/05/12 01:31:17;;;;;;;9.77;7.40;;;;;;;15.03;96.21;99820.22;4969491;28;20035;-81
2021/05/12 01:33:44;;;;;;;8.25;7.18;;;;;;;15.04;95.87;99828.09;4949461;28;20043;-81
2021/05/12 01:36:11;;;;;;;7.95;6.80;;;;;;;15.02;95.47;99835.31;4951799;28;20027;-79
2021/05/12 01:38:40;;;;;;;9.90;7.82;;;;;;;15.01;94.54;99841.56;4946695;28;20101;-80
2021/05/12 01:41:07;;;;;;;10.32;8.63;;;;;;;15.00;94.83;99826.56;4947418;28;20054;-80
2021/05/12 01:43:35;;;;;;;8.27;7.20;;;;;;;14.97;96.09;99821.41;4935537;28;20047;-81
2021/05/12 01:46:02;;;;;;;9.23;7.80;;;;;;;14.96;95.94;99829.44;4973439;28;20089;-80
2021/05/12 01:48:30;;;;;;;10.63;7.60;;;;;;;14.92;96.41;99831.41;4945024;28;20134;-79
2021/05/12 01:50:57;;;;;;;12.25;9.10;;;;;;;15.02;95.41;99837.97;4952861;28;20046;-81
2021/05/12 01:53:24;;;;;;;12.57;9.18;;;;;;;14.96;95.86;99845.41;4958148;28;20050;-82
2021/05/12 01:55:51;;;;;;;14.70;9.25;;;;;;;14.93;95.74;99843.78;4946052;28;20042;-80
2021/05/12 01:58:20;;;;;;;11.45;8.88;;;;;;;14.91;95.92;99833.22;4953298;28;20042;-82
2021/05/12 02:00:49;;;;;;;12.55;8.95;;;;;;;14.81;96.46;99837.28;4938524;28;20055;-81
2021/05/12 02:03:16;;;;;;;12.50;9.13;;;;;;;14.83;96.15;99838.06;4973009;28;20073;-81
2021/05/12 02:05:43;;;;;;;14.15;11.23;;;;;;;14.85;96.26;99846.81;4932876;28;20054;-83
2021/05/12 02:08:11;;;;;;;13.45;10.77;;;;;;;14.83;95.30;99853.16;4921288;28;20089;-81
2021/05/12 02:10:40;;;;;;;15.05;11.55;;;;;;;14.85;95.64;99852.13;4956903;28;20050;-81
2021/05/12 02:13:07;;;;;;;16.55;11.32;;;;;;;14.83;95.46;99855.81;4937853;28;20043;-81
2021/05/12 02:15:34;;;;;;;14.65;11.27;;;;;;;14.75;96.80;99858.88;4955649;28;20048;-80
2021/05/12 02:18:01;;;;;;;13.88;11.63;;;;;;;14.66;96.04;99861.13;4948128;28;20051;-82
2021/05/12 02:20:29;;;;;;;14.43;11.70;;;;;;;14.68;96.85;99860.09;4938031;28;20045;-82
2021/05/12 02:22:57;;;;;;;12.30;9.98;;;;;;;14.71;95.84;99870.56;4973030;28;20058;-81
2021/05/12 02:25:24;;;;;;;14.63;11.32;;;;;;;14.56;96.23;99863.38;4937272;28;20712;-82
2021/05/12 02:27:51;;;;;;;13.93;11.45;;;;;;;14.57;97.23;99865.97;4945065;28;20043;-81
2021/05/12 02:30:17;;;;;;;12.18;9.93;;;;;;;14.57;97.38;99873.09;4930285;28;20149;-82
2021/05/12 02:32:44;;;;;;;14.75;10.80;;;;;;;14.59;97.09;99876.50;4936163;28;20101;-81
2021/05/12 02:35:12;;;;;;;13.57;10.13;;;;;;;14.55;97.29;99873.16;4949988;28;20093;-83
2021/05/12 02:37:39;;;;;;;13.50;10.95;;;;;;;14.57;97.13;99868.63;4937457;29;20047;-81
2021/05/12 02:40:08;;;;;;;16.23;11.52;;;;;;;14.57;96.25;99855.34;4937245;28;20046;-82
2021/05/12 02:42:36;;;;;;;13.73;10.63;;;;;;;14.47;96.82;99843.44;4952425;29;20106;-81
2021/05/12 02:45:04;;;;;;;13.23;11.20;;;;;;;14.41;97.13;99857.00;4965208;28;20058;-80
2021/05/12 02:47:31;;;;;;;11.77;9.23;;;;;;;14.29;98.57;99850.50;4957795;28;20098;-81
2021/05/12 02:49:58;;;;;;;13.70;10.25;;;;;;;14.30;98.46;99867.28;4944165;28;20038;-82
2021/05/12 02:52:24;;;;;;;13.65;11.15;;;;;;;14.34;98.20;99863.53;4957037;28;20043;-81
2021/05/12 02:54:51;;;;;;;14.38;9.30;;;;;;;14.26;98.69;99861.25;4945039;28;20039;-81
2021/05/12 02:57:18;;;;;;;12.82;9.98;;;;;;;14.33;98.39;99862.69;4946493;29;20043;-82
2021/05/12 02:59:44;;;;;;;13.75;10.77;;;;;;;14.30;97.73;99864.63;4957125;28;20053;-81
2021/05/12 03:02:11;;;;;;;12.70;9.63;;;;;;;14.32;96.75;99866.28;4963137;28;20102;-81
2021/05/12 03:04:38;;;;;;;11.45;9.45;;;;;;;14.25;98.41;99869.28;4959481;28;20102;-82
2021/05/12 03:07:04;;;;;;;15.60;10.38;;;;;;;14.24;98.63;99870.22;4934243;29;20043;-82
2021/05/12 03:09:31;;;;;;;11.55;8.63;;;;;;;14.19;99.19;99885.53;4943377;29;20054;-81
2021/05/12 03:11:58;;;;;;;13.20;9.85;;;;;;;14.17;99.18;99885.59;4933622;29;20055;-81
2021/05/12 03:14:24;;;;;;;11.68;8.88;;;;;;;14.13;99.06;99877.88;4974770;28;20045;-82
2021/05/12 03:16:51;;;;;;;10.75;8.50;;;;;;;14.12;99.53;99873.47;4927936;29;20047;-81
2021/05/12 03:19:20;;;;;;;12.40;9.85;;;;;;;14.21;98.95;99878.34;4971170;28;20050;-82
2021/05/12 03:21:46;;;;;;;14.48;9.32;;;;;;;14.05;98.65;99883.53;4976165;28;20054;-82
2021/05/12 03:24:13;;;;;;;11.25;9.25;;;;;;;14.05;99.21;99886.19;4956000;28;20098;-82
2021/05/12 03:26:40;;;;;;;14.23;10.45;;;;;;;13.79;98.56;99885.63;4943948;28;20047;-81
2021/05/12 03:29:06;;;;;;;14.00;10.18;;;;;;;13.90;99.73;99879.78;4961223;28;20049;-81
2021/05/12 03:31:33;;;;;;;18.83;11.35;;;;;;;13.92;98.52;99882.38;4961351;28;20562;-82
2021/05/12 03:34:00;;;;;;;13.68;10.07;;;;;;;13.86;100.00;99894.13;4971951;28;20038;-81
2021/05/12 03:36:27;;;;;;;14.02;10.73;;;;;;;13.86;98.77;99880.84;4926849;28;20043;-82
2021/05/12 03:38:53;;;;;;;14.93;10.70;;;;;;;13.76;99.27;99882.22;4951118;29;20492;-81
2021/05/12 03:41:20;;;;;;;13.38;10.60;;;;;;;13.69;100.00;99892.25;4936914;28;20824;-81
2021/05/12 03:43:47;;;;;;;17.85;11.10;;;;;;;13.77;100.00;99890.09;4938626;28;20050;-81
2021/05/12 03:46:13;;;;;;;16.92;10.57;;;;;;;13.73;100.00;99893.00;4936194;28;20047;-81
2021/05/12 03:48:40;;;;;;;19.52;11.00;;;;;;;13.77;99.91;99903.38;4935425;28;20074;-80
2021/05/12 03:51:07;;;;;;;17.33;11.30;;;;;;;13.71;99.56;99900.16;4969753;28;20098;-80
2021/05/12 03:53:33;;;;;;;17.42;11.77;;;;;;;13.67;100.00;99902.09;4957033;28;20043;-82
2021/05/12 03:56:00;;;;;;;15.35;11.00;;;;;;;13.65;100.00;99901.31;4969011;28;20089;-82
2021/05/12 03:58:26;;;;;;;17.50;12.15;;;;;;;13.63;100.00;99902.31;4950176;28;20113;-81
2021/05/12 04:00:53;;;;;;;18.08;11.27;;;;;;;13.59;100.00;99900.72;4942830;28;20050;-81
2021/05/12 04:03:20;;;;;;;17.85;10.48;;;;;;;13.53;100.00;99905.34;4950280;28;20083;-81
2021/05/12 04:05:46;;;;;;;15.05;10.80;;;;;;;13.56;100.00;99907.03;4972961;28;20587;-81
2021/05/12 04:08:13;;;;;;;15.15;9.75;;;;;;;13.59;100.00;99911.31;4948125;28;20050;-81
2021/05/12 04:10:40;;;;;;;16.52;10.80;;;;;;;13.69;100.00;99910.81;4927050;28;20054;-82
2021/05/12 04:13:06;;;;;;;17.83;10.73;;;;;;;13.70;100.00;99909.03;4953439;28;20075;-83
2021/05/12 04:15:33;;;;;;;15.48;9.65;;;;;;;13.74;99.66;99907.97;4924109;28;20484;-82
2021/05/12 04:18:00;;;;;;;13.07;9.35;;;;;;;13.66;100.00;99905.66;4936569;28;20114;-82
2021/05/12 04:20:26;;;;;;;14.43;9.27;;;;;;;13.62;100.00;99906.75;4950546;28;20051;-83
2021/05/12 04:22:53;;;;;;;13.73;8.85;;;;;;;13.64;100.00;99906.69;4962079;28;20142;-82
2021/05/12 04:25:22;;;;;;;12.98;8.63;;;;;;;13.66;100.00;99902.16;4925915;28;20039;-81
2021/05/12 04:27:49;;;;;;;12.65;8.48;;;;;;;13.71;100.00;99908.13;4953765;28;20077;-82
2021/05/12 04:30:18;;;;;;;15.48;8.82;;;;;;;13.72;100.00;99913.38;4948379;28;20042;-82
2021/05/12 04:32:46;;;;;;;14.30;8.93;;;;;;;13.71;99.72;99913.44;4952228;28;20109;-83
2021/05/12 04:35:14;;;;;;;15.48;9.48;;;;;;;13.78;98.82;99923.69;4965455;28;20388;-82
2021/05/12 04:37:40;;;;;;;12.57;8.57;;;;;;;13.80;98.38;99929.81;4952728;28;20045;-81
2021/05/12 04:40:09;;;;;;;11.00;8.27;;;;;;;13.78;99.19;99918.38;4952140;28;20058;-81
2021/05/12 04:42:35;;;;;;;13.23;8.65;;;;;;;13.75;98.31;99912.34;4950583;28;20588;-82
2021/05/12 04:45:07;;;;;;;15.40;8.35;;;;;;;13.80;98.42;99924.50;4935376;28;20053;-81
2021/05/12 04:47:34;;;;;;;11.32;8.55;;;;;;;13.86;97.45;99925.13;4952671;28;20113;-82
2021/05/12 04:50:00;;;;;;;13.13;8.15;;;;;;;13.86;96.80;99927.78;4958778;28;20066;-82
2021/05/12 04:52:27;;;;;;;9.73;6.82;;;;;;;13.80;97.34;99931.59;4951322;28;20455;-81
2021/05/12 04:54:54;;;;;;;10.07;7.25;;;;;;;13.87;95.84;99925.06;4952107;28;20039;-82
2021/05/12 04:57:20;;;;;;;9.80;6.75;;;;;;;13.77;97.02;99931.72;4949025;28;20054;-82
2021/05/12 04:59:47;;;;;;;9.43;6.20;;;;;;;13.77;95.85;99937.03;4954903;28;20051;-82
2021/05/12 05:02:15;;;;;;;7.93;6.38;;;;;;;13.77;95.68;99931.72;4939475;29;20051;-83
2021/05/12 05:04:42;;;;;;;9.82;6.53;;;;;;;13.82;95.30;99948.31;4956998;28;20045;-81
2021/05/12 05:07:09;;;;;;;10.40;6.60;;;;;;;13.80;94.14;99943.09;4941741;28;20102;-82
2021/05/12 05:09:36;;;;;;;8.50;5.88;;;;;;;13.74;95.59;99938.03;4965871;28;20043;-82
2021/05/12 05:12:03;;;;;;;8.52;5.85;;;;;;;13.71;95.31;99937.34;4926975;29;20501;-81
2021/05/12 05:14:29;;;;;;;6.95;5.38;;;;;;;13.73;95.78;99941.63;4934266;28;20042;-82
2021/05/12 05:16:57;;;;;;;11.02;5.68;;;;;;;13.64;94.42;99947.34;4967282;28;20043;-81
2021/05/12 05:19:25;;;;;;;5.75;4.60;;;;;;;13.73;95.17;99943.44;4971549;28;20049;-81
2021/05/12 05:21:52;;;;;;;8.80;5.15;;;;;;;13.87;94.89;99940.13;4945051;28;20070;-83
2021/05/12 05:24:20;;;;;;;6.55;4.32;;;;;;;14.01;93.90;99946.53;4973863;28;20465;-82
2021/05/12 05:26:46;;;;;;;9.25;4.05;;;;;;;14.03;93.83;99949.97;4955277;28;20043;-81
2021/05/12 05:29:13;;;;;;;6.03;4.03;;;;;;;14.09;94.10;99951.50;4941440;28;20047;-81
2021/05/12 05:31:40;;;;;;;6.50;5.00;;;;;;;14.19;93.36;99952.78;4949717;28;20039;-83
2021/05/12 05:34:06;;;;;;;9.63;5.13;;;;;;;14.25;92.41;99951.66;4971207;28;20710;-83
2021/05/12 05:36:33;;;;;;;7.95;6.20;;;;;;;14.24;92.29;99955.25;4942565;28;20043;-81
2021/05/12 05:39:00;;;;;;;8.30;5.72;;;;;;;14.31;92.72;99952.25;4949153;28;20413;-83
2021/05/12 05:41:26;;;;;;;10.20;6.00;;;;;;;14.27;92.54;99957.75;4940468;28;20404;-83
2021/05/12 05:43:53;;;;;;;7.75;5.85;;;;;;;14.33;91.46;99971.63;4957588;28;20051;-82
2021/05/12 05:46:19;;;;;;;10.98;6.13;;;;;;;14.30;92.87;99984.19;4957022;28;20103;-82
2021/05/12 05:48:46;;;;;;;11.52;6.88;;;;;;;14.34;92.22;99983.97;4959258;28;20047;-82
2021/05/12 05:51:13;;;;;;;8.43;6.00;;;;;;;14.23;92.39;99982.75;4938197;28;20063;-82
2021/05/12 05:53:39;;;;;;;9.13;5.80;;;;;;;14.29;92.65;99977.13;4941623;28;20074;-82
2021/05/12 05:56:06;;;;;;;7.60;5.60;;;;;;;14.25;92.20;99984.41;4938612;28;20035;-81
2021/05/12 05:58:32;;;;;;;8.43;6.10;;;;;;;14.23;91.41;99988.06;4950259;28;20401;-82
2021/05/12 06:00:59;;;;;;;8.77;5.85;;;;;;;14.22;92.26;99989.88;4933215;28;20055;-81
2021/05/12 06:03:26;;;;;;;9.85;5.97;;;;;;;14.24;91.32;99997.75;4970283;28;20042;-80
2021/05/12 06:05:52;;;;;;;9.52;6.38;;;;;;;14.24;89.93;100005.72;4939744;28;20050;-80
2021/05/12 06:08:19;;;;;;;8.50;6.25;;;;;;;14.19;90.37;99997.97;4969925;28;20044;-80
2021/05/12 06:10:46;;;;;;;8.27;5.65;;;;;;;14.20;90.00;100004.13;4954542;28;20046;-81
2021/05/12 06:13:12;;;;;;;6.30;5.40;;;;;;;14.17;88.97;100002.50;4972800;28;20039;-80
2021/05/12 06:15:40;;;;;;;6.13;4.95;;;;;;;14.11;88.67;100004.56;4946588;28;20039;-81
2021/05/12 06:18:07;;;;;;;7.53;4.60;;;;;;;14.12;89.50;100022.22;4977664;28;20043;-79
2021/05/12 06:20:34;;;;;;;6.57;5.30;;;;;;;14.12;88.48;100016.91;4941975;28;20043;-82
2021/05/12 06:23:05;;;;;;;7.68;4.53;;;;;;;14.13;88.38;100021.31;4961424;28;20049;-80
2021/05/12 06:25:48;;;;;;;6.35;4.47;;;;;;;14.10;88.48;100022.28;4948603;28;20514;-80
2021/05/12 06:28:16;;;;;;;7.95;5.53;;;;;;;14.09;89.94;100016.13;4946953;28;20038;-80
2021/05/12 06:30:49;;;;;;;6.63;4.85;;;;;;;14.09;89.20;100017.91;4956993;28;20073;-79
2021/05/12 06:33:16;;;;;;;7.00;5.30;;;;;;;14.12;88.97;100024.88;4973667;28;20050;-82
2021/05/12 06:35:43;;;;;;;8.65;6.47;;;;;;;14.13;87.98;100018.66;4929114;29;20051;-82
2021/05/12 06:38:10;;;;;;;8.80;6.10;;;;;;;13.96;88.89;100019.41;4923956;29;20448;-82
2021/05/12 06:40:37;;;;;;;13.00;6.50;;;;;;;13.97;88.50;100008.72;4930492;28;20581;-83
2021/05/12 06:43:04;;;;;;;8.00;6.35;;;;;;;13.99;88.46;100020.13;4957787;28;20110;-81
2021/05/12 06:45:31;;;;;;;7.93;6.07;;;;;;;13.95;89.43;100022.97;4937704;28;20046;-81
2021/05/12 06:47:58;;;;;;;6.88;5.15;;;;;;;13.92;89.91;100010.69;4929925;29;20114;-82
2021/05/12 06:50:24;;;;;;;7.60;5.50;;;;;;;13.92;89.77;100008.03;4975975;28;20034;-80
2021/05/12 06:52:55;;;;;;;7.93;6.18;;;;;;;13.98;89.28;100017.53;5042683;23;20040;-84
2021/05/12 06:55:22;;;;;;;9.50;5.95;;;;;;;13.88;89.40;100011.78;4915991;29;20394;-84
2021/05/12 06:57:49;;;;;;;8.95;5.90;;;;;;;13.85;89.72;100009.25;4931977;29;20039;-83
2021/05/12 07:00:16;;;;;;;8.50;6.35;;;;;;;13.90;89.84;100009.91;4932901;29;20047;-83
2021/05/12 07:02:49;;;;;;;11.43;6.47;;;;;;;13.96;89.19;100004.34;4918378;29;20098;-83
2021/05/12 07:05:16;;;;;;;10.80;7.43;;;;;;;13.88;89.18;100005.59;4912722;28;20058;-84
2021/05/12 07:07:43;;;;;;;10.48;6.93;;;;;;;13.91;89.87;100003.66;4916034;29;20745;-83
2021/05/12 07:10:12;;;;;;;9.82;7.60;;;;;;;13.92;89.31;100009.84;4895929;29;20720;-83
2021/05/12 07:12:38;;;;;;;10.60;7.65;;;;;;;13.83;89.75;100015.56;4917842;29;20051;-82
2021/05/12 07:15:07;;;;;;;9.93;7.25;;;;;;;13.78;90.22;100021.91;4923899;29;20048;-83
2021/05/12 07:17:34;;;;;;;9.65;6.82;;;;;;;13.76;90.02;100028.22;4908121;29;20050;-83
2021/05/12 07:20:01;;;;;;;12.90;8.27;;;;;;;13.60;88.29;100025.38;4913462;28;20114;-82
2021/05/12 07:22:28;;;;;;;13.68;9.63;;;;;;;13.60;89.49;100021.84;4929789;28;20122;-82
2021/05/12 07:24:57;;;;;;;14.35;8.13;;;;;;;13.53;91.39;100015.94;4913547;29;20043;-82
2021/05/12 07:27:24;;;;;;;11.02;7.95;;;;;;;13.61;91.02;100024.44;4914346;29;20051;-82
2021/05/12 07:29:50;;;;;;;13.77;9.73;;;;;;;13.68;90.36;100025.91;4923656;29;20047;-83
2021/05/12 07:32:17;;;;;;;13.23;8.57;;;;;;;13.61;89.33;100026.22;4917973;29;20054;-83
2021/05/12 07:34:44;;;;;;;13.00;9.43;;;;;;;13.62;88.40;100033.25;4924966;28;20053;-84
2021/05/12 07:37:11;;;;;;;13.15;9.15;;;;;;;13.45;91.17;100028.69;4919230;29;20055;-86
2021/05/12 07:39:37;;;;;;;13.98;9.05;;;;;;;13.65;92.45;100031.34;4935269;28;20055;-85
2021/05/12 07:42:07;;;;;;;12.35;8.55;;;;;;;13.73;91.45;100039.84;4911045;29;20050;-82
2021/05/12 07:44:33;;;;;;;12.10;7.95;;;;;;;13.82;90.04;100054.53;4933765;29;20800;-84
2021/05/12 07:47:00;;;;;;;12.25;8.57;;;;;;;13.97;90.43;100053.00;4922706;28;20050;-83
2021/05/12 07:49:27;;;;;;;14.07;8.35;;;;;;;14.07;88.03;100046.34;4915655;29;20764;-85
2021/05/12 07:51:54;;;;;;;12.23;8.88;;;;;;;14.09;88.62;100050.66;4931550;29;20513;-83
2021/05/12 07:54:20;;;;;;;13.10;9.10;;;;;;;14.14;88.05;100050.44;4930301;29;20063;-83
2021/05/12 07:56:47;;;;;;;11.27;8.32;;;;;;;14.13;87.22;100055.84;4906022;29;20048;-82
2021/05/12 07:59:18;;;;;;;11.43;8.48;;;;;;;13.99;88.61;100049.34;4928324;29;20049;-82
2021/05/12 08:01:47;;;;;;;10.40;8.02;;;;;;;13.94;88.97;100061.94;4925939;29;20048;-81
2021/05/12 08:04:14;;;;;;;15.00;8.95;;;;;;;13.57;89.73;100061.81;4927630;29;20513;-82
2021/05/12 08:06:40;;;;;;;11.82;9.13;;;;;;;13.68;89.24;100063.06;4930291;29;20047;-82
2021/05/12 08:09:09;;;;;;;11.45;7.85;;;;;;;13.76;89.70;100060.09;4908214;29;20051;-83
2021/05/12 08:11:35;;;;;;;12.02;8.07;;;;;;;13.84;89.36;100062.41;4945042;29;20052;-81
2021/05/12 08:14:03;;;;;;;11.77;8.73;;;;;;;13.76;89.68;100074.22;4932616;29;20043;-83
2021/05/12 08:16:30;;;;;;;14.32;9.15;;;;;;;13.82;90.27;100067.78;4928721;29;20420;-83
2021/05/12 08:18:57;;;;;;;11.18;7.35;;;;;;;13.88;89.98;100075.50;4917943;29;20043;-82
2021/05/12 08:21:23;;;;;;;12.07;8.40;;;;;;;13.93;89.71;100075.28;4910599;29;20062;-81
2021/05/12 08:23:50;;;;;;;12.88;9.05;;;;;;;13.94;89.36;100077.00;4924300;29;20053;-81
2021/05/12 08:26:17;;;;;;;9.70;6.93;;;;;;;13.90;89.77;100068.34;4929332;29;20047;-83
2021/05/12 08:28:44;;;;;;;10.43;7.45;;;;;;;13.96;88.28;100056.59;4948361;29;20098;-81
2021/05/12 08:31:15;;;;;;;8.80;7.10;;;;;;;13.99;88.84;100062.63;4957038;28;20047;-82
2021/05/12 08:33:42;;;;;;;10.80;7.40;;;;;;;13.99;88.09;100049.34;4938429;29;20047;-83
2021/05/12 08:36:08;;;;;;;11.57;7.95;;;;;;;13.96;88.29;100052.13;4904631;29;20616;-82
2021/05/12 08:38:36;;;;;;;11.52;6.82;;;;;;;13.98;88.46;100052.94;4952910;29;20444;-82
2021/05/12 08:41:03;;;;;;;10.98;7.57;;;;;;;13.94;88.07;100061.06;4935785;29;20043;-82
2021/05/12 08:43:30;;;;;;;12.65;8.77;;;;;;;14.02;88.29;100065.13;4933887;29;20493;-83
2021/05/12 08:45:57;;;;;;;11.43;7.78;;;;;;;14.02;88.25;100077.53;4932005;29;20047;-82
2021/05/12 08:48:25;;;;;;;10.93;7.57;;;;;;;14.00;88.57;100074.97;4917377;29;20040;-81
2021/05/12 08:50:53;;;;;;;11.20;7.82;;;;;;;14.09;88.01;100066.59;4885496;29;20400;-82
2021/05/12 08:53:20;;;;;;;10.98;7.00;;;;;;;14.18;87.89;100075.06;4928274;29;20054;-81
2021/05/12 08:55:47;;;;;;;235.70;34.88;;;;;;;14.20;88.71;100076.72;4929005;29;20075;-82
2021/05/12 08:58:13;;;;;;;15.70;8.27;;;;;;;14.34;87.93;100073.47;4949403;29;20071;-83
2021/05/12 09:00:45;;;;;;;10.57;6.90;;;;;;;14.36;87.82;100091.03;4936311;28;20366;-84
2021/05/12 09:03:12;;;;;;;10.63;7.50;;;;;;;14.10;87.89;100083.38;4916928;29;20137;-83
2021/05/12 09:05:38;;;;;;;13.02;8.10;;;;;;;14.08;87.58;100087.91;4920170;29;20075;-83
2021/05/12 09:08:06;;;;;;;11.65;7.43;;;;;;;14.00;88.02;100074.97;4933145;29;20058;-82
2021/05/12 09:10:33;;;;;;;19.67;8.35;;;;;;;14.03;89.67;100079.25;4935535;29;20098;-82
2021/05/12 09:13:00;;;;;;;10.95;6.93;;;;;;;14.16;88.93;100072.50;4951941;29;20480;-83
2021/05/12 09:15:28;;;;;;;11.60;6.78;;;;;;;14.24;88.46;100075.66;4935151;29;20412;-83
2021/05/12 09:17:57;;;;;;;12.93;7.60;;;;;;;14.29;86.64;100076.34;4919872;29;20507;-83
2021/05/12 09:20:25;;;;;;;12.98;7.40;;;;;;;14.17;87.44;100078.66;4934028;29;20051;-81
2021/05/12 09:22:58;;;;;;;12.98;8.63;;;;;;;14.20;86.78;100074.06;4936370;29;20079;-81
2021/05/12 09:25:27;;;;;;;11.20;7.97;;;;;;;14.18;87.96;100070.63;4919141;29;20058;-83
2021/05/12 09:28:07;;;;;;;11.48;7.35;;;;;;;14.23;88.20;100083.72;4948364;29;20520;-80
2021/05/12 09:30:38;;;;;;;10.73;7.90;;;;;;;14.09;88.22;100090.50;4930891;29;20047;-81
2021/05/12 09:33:06;;;;;;;12.30;7.50;;;;;;;14.26;89.28;100083.56;4918508;29;20511;-81
2021/05/12 09:35:41;;;;;;;8.10;6.85;;;;;;;14.37;87.38;100094.56;4915264;29;20116;-81
2021/05/12 09:38:22;;;;;;;9.18;6.78;;;;;;;14.51;86.33;100088.66;4945012;29;20122;-80
2021/05/12 09:41:02;;;;;;;10.50;7.55;;;;;;;14.60;85.29;100088.25;4947296;29;20662;-82
2021/05/12 09:43:30;;;;;;;13.50;7.35;;;;;;;14.69;85.34;100097.59;4917226;28;20146;-79
2021/05/12 09:46:23;;;;;;;10.50;6.97;;;;;;;14.79;85.47;100102.41;4920013;29;20481;-84
2021/05/12 09:48:59;;;;;;;11.20;7.07;;;;;;;14.83;85.44;100101.34;4912253;29;20060;-81
2021/05/12 09:51:28;;;;;;;14.52;8.55;;;;;;;14.54;84.82;100105.31;4969359;28;20120;-81
2021/05/12 09:54:11;;;;;;;12.70;8.15;;;;;;;14.57;84.96;100107.88;4922778;29;20051;-83
2021/05/12 09:56:43;;;;;;;13.05;7.88;;;;;;;14.41;84.79;100103.28;4950746;29;20827;-81
2021/05/12 09:59:09;;;;;;;11.68;7.97;;;;;;;14.37;85.77;100095.44;4935455;29;20240;-83
2021/05/12 10:01:43;;;;;;;15.40;7.50;;;;;;;14.62;86.38;100089.88;4935078;29;20043;-82
2021/05/12 10:04:20;;;;;;;10.18;7.32;;;;;;;14.70;86.45;100094.00;4933940;29;20134;-82
2021/05/12 10:06:47;;;;;;;11.95;7.55;;;;;;;14.86;85.65;100089.69;4946635;29;20039;-82
2021/05/12 10:09:18;;;;;;;11.65;7.75;;;;;;;14.77;85.30;100084.81;4919201;29;20051;-84
2021/05/12 10:12:01;;;;;;;10.55;7.13;;;;;;;14.94;86.66;100076.88;4935684;29;20044;-82
2021/05/12 10:14:29;;;;;;;11.30;8.18;;;;;;;15.07;84.74;100078.03;4935634;29;20047;-81
2021/05/12 10:16:56;;;;;;;12.80;7.80;;;;;;;15.23;83.73;100080.81;4934003;29;20051;-83
2021/05/12 10:19:23;;;;;;;12.63;8.00;;;;;;;15.13;82.64;100084.84;4934333;29;20051;-80
2021/05/12 10:21:52;;;;;;;12.25;7.57;;;;;;;14.83;84.63;100087.19;4936116;29;20075;-82
2021/05/12 10:24:20;;;;;;;13.77;8.57;;;;;;;14.97;84.25;100076.75;4949524;29;20708;-83
2021/05/12 10:26:48;;;;;;;10.77;7.70;;;;;;;15.06;83.78;100078.13;4911945;29;20071;-80
2021/05/12 10:29:17;;;;;;;11.02;7.93;;;;;;;15.04;83.57;100072.00;4941662;29;20458;-82
2021/05/12 10:31:44;;;;;;;11.43;7.55;;;;;;;14.98;83.97;100078.47;4935170;29;20047;-83
2021/05/12 10:34:16;;;;;;;8.32;5.57;;;;;;;14.99;84.77;100080.19;4934845;29;20477;-83
2021/05/12 10:36:43;;;;;;;8.50;5.93;;;;;;;15.08;84.74;100082.41;4918812;29;20063;-84
2021/05/12 10:39:10;;;;;;;9.10;6.85;;;;;;;15.06;85.24;100083.44;4931313;29;20050;-83
2021/05/12 10:41:48;;;;;;;11.07;7.00;;;;;;;15.13;85.52;100072.44;4911057;29;20047;-83
2021/05/12 10:44:37;;;;;;;8.82;6.00;;;;;;;15.28;85.18;100078.78;4928319;28;20054;-84
2021/05/12 10:47:08;;;;;;;29.65;8.15;;;;;;;15.62;82.77;100067.34;4914025;29;20420;-85
2021/05/12 10:49:35;;;;;;;9.88;6.47;;;;;;;15.55;80.11;100067.69;4916269;29;20050;-85
2021/05/12 10:52:07;;;;;;;9.00;6.40;;;;;;;15.64;80.96;100073.47;4934915;29;20079;-82
2021/05/12 10:54:45;;;;;;;8.50;5.90;;;;;;;15.56;80.60;100075.63;4942440;29;20062;-85
2021/05/12 10:57:37;;;;;;;8.95;6.25;;;;;;;15.66;79.52;100079.56;4912155;29;20044;-85
2021/05/12 11:00:04;;;;;;;8.48;5.50;;;;;;;15.68;80.87;100088.34;4930875;29;20576;-86
2021/05/12 11:02:49;;;;;;;9.85;6.18;;;;;;;15.37;80.64;100093.44;4910410;29;20098;-85
2021/05/12 11:05:19;;;;;;;6.90;5.35;;;;;;;15.49;82.43;100090.19;4934965;29;20417;-85
2021/05/12 11:08:12;;;;;;;7.53;5.28;;;;;;;15.72;82.51;100081.94;4929922;29;20488;-85
2021/05/12 11:11:05;;;;;;;8.07;5.60;;;;;;;15.83;81.53;100077.84;4919346;29;20048;-83
2021/05/12 11:13:34;;;;;;;11.85;7.30;;;;;;;15.61;77.95;100081.59;4929221;29;20054;-86
2021/05/12 11:16:03;;;;;;;9.38;6.25;;;;;;;15.43;81.70;100085.16;4914399;29;20043;-85
2021/05/12 11:18:33;;;;;;;8.05;5.72;;;;;;;15.59;81.73;100072.81;4939616;28;20125;-84
2021/05/12 11:21:26;;;;;;;11.18;6.90;;;;;;;15.86;81.54;100083.00;4932257;29;20058;-84
2021/05/12 11:24:05;;;;;;;7.07;5.22;;;;;;;15.93;80.48;100082.63;4912344;28;20068;-83
2021/05/12 11:32:07;;;;;;;9.40;6.13;;;;;;;15.77;81.22;100065.72;4936025;28;20049;-84
2021/05/12 11:34:37;;;;;;;8.05;5.85;;;;;;;15.92;80.57;100072.91;4948645;28;20039;-85